Terminal Aerodrome Forecast
Issued by NWS

Home | Current Version | Previous Version | Text Only | Print | Product List | Glossary On
Versions: 1 2 3 4 5 6 7 8 9 10 11 12 13
278
FTUS43 KGRR 242347
TAFLAN
TAF
KLAN 242347Z 2500/2524 03007KT P6SM OVC080
     FM250300 03009KT P6SM OVC035
     FM250500 04009KT 5SM BR VCSH OVC025
     FM250700 05009KT 3SM -RA BR OVC015
     FM250900 05010KT 2SM -RA BR OVC008
     FM251200 08011KT 2SM -RA BR OVC004=

USA.gov is the U.S. government's official web portal to all federal, state and local government web resources and services.